createdAt,value
2023-01-19T00:03:40.806Z,81.65
2023-01-19T00:08:46.075Z,81.46
2023-01-19T00:13:51.105Z,82.09
2023-01-19T00:18:55.764Z,81.45
2023-01-19T00:23:58.878Z,82.01
2023-01-19T00:29:02.017Z,82.00
2023-01-19T00:34:07.844Z,82.19
2023-01-19T00:39:11.020Z,81.38
2023-01-19T00:44:14.264Z,82.45
2023-01-19T00:49:18.846Z,81.39
2023-01-19T00:54:22.003Z,81.10
2023-01-19T00:59:25.877Z,81.96
2023-01-19T01:04:30.425Z,81.42
2023-01-19T01:09:33.604Z,81.79
2023-01-19T01:14:36.927Z,81.43
2023-01-19T01:19:41.679Z,81.34
2023-01-19T01:24:44.957Z,82.08
2023-01-19T01:29:48.224Z,82.78
2023-01-19T01:34:52.773Z,83.02
2023-01-19T01:39:55.920Z,82.59
2023-01-19T01:45:00.972Z,82.31
2023-01-19T01:50:10.133Z,82.88
2023-01-19T01:55:14.679Z,82.30
2023-01-19T02:00:18.780Z,82.19
2023-01-19T02:05:27.334Z,82.04
2023-01-19T02:10:47.829Z,82.29
2023-01-19T02:15:52.920Z,82.03
2023-01-19T02:21:05.605Z,81.83
2023-01-19T02:26:12.703Z,82.76
2023-01-19T02:31:16.386Z,82.56
2023-01-19T02:36:23.997Z,83.12
2023-01-19T02:41:32.308Z,82.84
2023-01-19T02:46:35.869Z,82.37
2023-01-19T02:51:39.131Z,82.58
2023-01-19T02:57:18.517Z,82.47
2023-01-19T03:02:36.042Z,82.16
2023-01-19T03:07:50.550Z,82.46
2023-01-19T03:13:03.506Z,82.69
2023-01-19T03:18:11.989Z,83.45
2023-01-19T03:23:16.991Z,82.49
2023-01-19T03:28:24.246Z,83.58
2023-01-19T03:33:34.295Z,82.93
2023-01-19T03:38:39.607Z,82.39
2023-01-19T03:43:42.705Z,81.72
2023-01-19T03:48:48.584Z,82.18
2023-01-19T03:53:51.801Z,82.02
2023-01-19T03:58:56.266Z,81.59
2023-01-19T04:04:01.574Z,82.25
2023-01-19T04:09:04.729Z,82.52
2023-01-19T04:14:07.840Z,81.60
2023-01-19T04:19:12.458Z,82.61
2023-01-19T04:24:15.563Z,81.66
2023-01-19T04:29:18.716Z,81.79
2023-01-19T04:34:23.253Z,81.92
2023-01-19T04:39:26.590Z,82.73
2023-01-19T04:44:29.817Z,82.01
2023-01-19T04:49:34.352Z,82.56
2023-01-19T04:54:37.553Z,82.62
2023-01-19T04:59:40.674Z,83.02
2023-01-19T05:04:45.341Z,82.68
2023-01-19T05:09:48.463Z,82.28
2023-01-19T05:14:51.629Z,83.08
2023-01-19T05:19:56.191Z,82.40
2023-01-19T05:24:59.363Z,82.87
2023-01-19T05:30:04.845Z,82.15
2023-01-19T05:35:10.889Z,82.35
2023-01-19T05:40:14.332Z,82.21
2023-01-19T05:45:17.583Z,81.63
2023-01-19T05:50:22.147Z,81.93
2023-01-19T05:55:25.271Z,81.81
2023-01-19T06:00:29.267Z,81.72
2023-01-19T06:05:34.135Z,82.47
2023-01-19T06:10:37.399Z,82.94
2023-01-19T06:15:40.563Z,82.84
2023-01-19T06:20:45.109Z,82.16
2023-01-19T06:25:50.282Z,82.98
2023-01-19T06:30:55.067Z,82.29
2023-01-19T06:35:59.655Z,82.96
2023-01-19T06:41:04.072Z,82.90
2023-01-19T06:46:07.438Z,82.19
2023-01-19T06:51:12.018Z,82.34
2023-01-19T06:56:15.330Z,82.04
2023-01-19T07:01:18.756Z,81.63
2023-01-19T07:06:23.366Z,82.15
2023-01-19T07:11:31.904Z,82.70
2023-01-19T07:16:36.260Z,82.61
2023-01-19T07:21:40.843Z,82.33
2023-01-19T07:26:44.085Z,82.71
2023-01-19T07:31:48.998Z,82.85
2023-01-19T07:36:53.646Z,82.95
2023-01-19T07:41:56.767Z,83.11
2023-01-19T07:47:00.302Z,83.03
2023-01-19T07:52:04.873Z,82.61
2023-01-19T07:57:07.992Z,82.35
2023-01-19T08:02:11.802Z,82.18
2023-01-19T08:07:16.545Z,81.98
2023-01-19T08:12:19.745Z,82.31
2023-01-19T08:17:22.875Z,82.18
2023-01-19T08:22:27.439Z,82.42
2023-01-19T08:27:31.399Z,82.08
2023-01-19T08:32:34.555Z,81.91
2023-01-19T08:37:39.112Z,82.36
2023-01-19T08:42:42.205Z,82.03
2023-01-19T08:47:45.548Z,81.56
2023-01-19T08:52:50.085Z,81.55
2023-01-19T08:57:54.061Z,81.75
2023-01-19T09:02:57.440Z,81.88
2023-01-19T09:08:02.986Z,81.48
2023-01-19T09:13:08.656Z,81.81
2023-01-19T09:18:13.863Z,82.15
2023-01-19T09:23:20.344Z,82.45
2023-01-19T09:28:23.808Z,82.05
2023-01-19T09:33:27.330Z,82.26
2023-01-19T09:38:33.217Z,81.96
2023-01-19T09:43:42.831Z,82.00
2023-01-19T09:48:48.832Z,82.46
2023-01-19T09:53:59.076Z,82.63
2023-01-19T09:59:04.833Z,82.73
2023-01-19T10:04:30.492Z,82.42
2023-01-19T10:09:37.276Z,82.47
2023-01-19T10:14:46.660Z,81.67
2023-01-19T10:19:55.541Z,82.44
2023-01-19T10:25:06.053Z,82.11
2023-01-19T10:30:16.672Z,82.23
2023-01-19T10:35:24.651Z,82.85
2023-01-19T10:40:36.780Z,83.15
2023-01-19T10:45:39.995Z,83.25
2023-01-19T10:50:43.685Z,82.99
2023-01-19T10:55:48.322Z,83.25
2023-01-19T11:00:51.566Z,83.17
2023-01-19T11:05:54.745Z,82.91
2023-01-19T11:11:04.450Z,83.37
2023-01-19T11:16:16.072Z,84.10
2023-01-19T11:21:26.000Z,84.92
2023-01-19T11:26:34.138Z,84.75
2023-01-19T11:31:37.564Z,84.64
2023-01-19T11:36:40.701Z,84.75
2023-01-19T11:41:49.667Z,85.25
2023-01-19T11:46:57.524Z,84.67
2023-01-19T11:52:05.537Z,85.54
2023-01-19T11:57:15.170Z,85.31
2023-01-19T12:02:25.974Z,85.25
2023-01-19T12:07:35.073Z,85.69
2023-01-19T12:12:41.070Z,84.92
2023-01-19T12:17:48.786Z,85.02
2023-01-19T12:22:59.708Z,84.83
2023-01-19T12:28:05.055Z,85.19
2023-01-19T12:33:34.627Z,85.42
2023-01-19T12:38:44.362Z,86.37
2023-01-19T12:43:49.403Z,86.74
2023-01-19T12:48:53.627Z,86.99
2023-01-19T12:53:59.825Z,86.96
2023-01-19T12:59:06.289Z,86.85
2023-01-19T13:04:33.105Z,87.35
2023-01-19T13:09:38.314Z,87.29
2023-01-19T13:14:44.642Z,87.79
2023-01-19T13:19:55.124Z,87.33
2023-01-19T13:25:11.663Z,88.54
2023-01-19T13:30:20.964Z,88.31
2023-01-19T13:35:25.051Z,88.45
2023-01-19T13:40:37.017Z,88.79
2023-01-19T13:45:42.282Z,88.01
2023-01-19T13:50:58.533Z,88.01
2023-01-19T13:56:10.095Z,87.57
2023-01-19T14:01:26.134Z,87.92
2023-01-19T14:06:35.982Z,88.67
2023-01-19T14:11:39.868Z,88.63
2023-01-19T14:16:44.441Z,88.67
2023-01-19T14:21:47.574Z,88.50
2023-01-19T14:26:52.845Z,88.05
2023-01-19T14:32:15.564Z,88.09
2023-01-19T14:37:24.782Z,88.46
2023-01-19T14:42:30.591Z,88.77
2023-01-19T14:47:40.883Z,88.86
2023-01-19T14:52:49.970Z,89.12
2023-01-19T14:57:53.092Z,88.52
2023-01-19T15:02:57.627Z,88.72
2023-01-19T15:08:03.138Z,89.39
2023-01-19T15:13:06.315Z,89.06
2023-01-19T15:18:17.467Z,89.67
2023-01-19T15:23:20.614Z,88.99
2023-01-19T15:28:23.768Z,90.32
2023-01-19T15:33:30.674Z,89.52
2023-01-19T15:38:33.783Z,89.88
2023-01-19T15:43:36.923Z,90.47
2023-01-19T15:48:41.482Z,89.63
2023-01-19T15:53:45.602Z,89.97
2023-01-19T15:58:49.088Z,90.27
2023-01-19T16:03:53.652Z,90.25
2023-01-19T16:09:01.123Z,90.69
2023-01-19T16:14:04.440Z,90.65
2023-01-19T16:19:08.975Z,90.87
2023-01-19T16:24:12.131Z,90.96
2023-01-19T16:29:15.307Z,91.37
2023-01-19T16:34:19.853Z,91.74
2023-01-19T16:39:23.049Z,91.13
2023-01-19T16:44:26.266Z,90.96
2023-01-19T16:49:30.911Z,91.54
2023-01-19T16:54:34.406Z,91.30
2023-01-19T16:59:39.556Z,91.95
2023-01-19T17:04:44.140Z,91.86
2023-01-19T17:09:47.287Z,91.19
2023-01-19T17:14:50.414Z,91.26
2023-01-19T17:19:54.956Z,91.02
2023-01-19T17:24:58.063Z,91.05
2023-01-19T17:30:01.215Z,91.89
2023-01-19T17:35:06.433Z,91.65
2023-01-19T17:40:11.395Z,92.03
2023-01-19T17:45:14.810Z,91.72
2023-01-19T17:50:19.529Z,91.87
2023-01-19T17:55:22.643Z,91.86
2023-01-19T18:00:25.924Z,91.41
2023-01-19T18:05:30.540Z,91.88
2023-01-19T18:10:33.702Z,91.63
2023-01-19T18:15:36.840Z,91.88
2023-01-19T18:20:43.150Z,91.30
2023-01-19T18:25:46.308Z,91.41
2023-01-19T18:30:49.490Z,92.04
2023-01-19T18:35:54.088Z,91.35
2023-01-19T18:41:05.090Z,91.84
2023-01-19T18:46:08.770Z,91.61
2023-01-19T18:51:15.513Z,91.37
2023-01-19T18:56:18.687Z,91.91
2023-01-19T19:01:24.371Z,91.95
2023-01-19T19:06:29.254Z,91.51
2023-01-19T19:11:32.554Z,91.40
2023-01-19T19:16:38.583Z,91.53
2023-01-19T19:21:44.758Z,92.17
2023-01-19T19:26:47.914Z,91.98
2023-01-19T19:31:51.197Z,91.92
2023-01-19T19:36:55.742Z,91.60
2023-01-19T19:41:58.885Z,91.54
2023-01-19T19:47:02.133Z,91.91
2023-01-19T19:52:06.772Z,92.04
2023-01-19T19:57:10.136Z,92.12
2023-01-19T20:02:13.835Z,92.42
2023-01-19T20:07:18.438Z,92.18
2023-01-19T20:12:21.712Z,91.40
2023-01-19T20:17:24.951Z,91.66
2023-01-19T20:22:29.552Z,92.04
2023-01-19T20:27:32.829Z,91.85
2023-01-19T20:32:36.040Z,92.10
2023-01-19T20:37:40.699Z,91.76
2023-01-19T20:42:44.665Z,91.89
2023-01-19T20:47:47.942Z,91.87
2023-01-19T20:52:52.601Z,91.78
2023-01-19T20:57:55.852Z,91.49
2023-01-19T21:02:59.504Z,91.88
2023-01-19T21:08:06.077Z,92.07
2023-01-19T21:13:09.346Z,92.02
2023-01-19T21:18:12.587Z,91.93
2023-01-19T21:23:19.213Z,91.61
2023-01-19T21:28:23.168Z,91.36
2023-01-19T21:33:26.507Z,91.83
2023-01-19T21:38:31.181Z,91.83
2023-01-19T21:43:36.495Z,91.59
2023-01-19T21:48:39.744Z,92.29
2023-01-19T21:53:44.672Z,91.69
2023-01-19T21:58:47.996Z,92.16
2023-01-19T22:03:55.114Z,91.64
2023-01-19T22:09:00.961Z,91.74
2023-01-19T22:14:04.209Z,91.67
2023-01-19T22:19:08.441Z,92.07
2023-01-19T22:24:13.275Z,92.15
2023-01-19T22:29:16.535Z,92.63
2023-01-19T22:34:19.790Z,92.61
2023-01-19T22:39:24.498Z,93.10
2023-01-19T22:44:27.765Z,93.17
2023-01-19T22:49:31.235Z,92.70
2023-01-19T22:54:36.031Z,92.29
2023-01-19T22:59:39.301Z,92.00
2023-01-19T23:04:42.556Z,91.94
2023-01-19T23:09:47.172Z,92.13
2023-01-19T23:14:50.437Z,91.78
2023-01-19T23:19:53.712Z,91.61
2023-01-19T23:24:58.301Z,92.30
2023-01-19T23:30:01.566Z,92.29
2023-01-19T23:35:05.422Z,92.22
2023-01-19T23:40:11.482Z,92.17
2023-01-19T23:45:15.030Z,91.98
2023-01-19T23:50:19.661Z,92.01
2023-01-19T23:55:24.304Z,91.90
